Hillje, Texas
Current Conditions -  °F | °C
As of 12:15 PM on Thursday 30 Oct 2014 (Local Time) from KARM Reporting Station
Overcast Overcast  
Wind Chill: 74°   Ceiling: 2800
Heat Index: 74°   Visibility: 10mi
Dew Point: 61°   Wind: 0mph
Humidity: 63%   Direction: NA
Pressure: 30.14"   Gusts: NA
Location:  29.1916°N, 96.2212°W
Report Text: KARM 301715Z AUTO 00000KT 10SM OVC028 23/16 A3014 RMK AO2 T02330159
Loading
Personal Weather Stations






























Interactive Weather Map
Tropical Storm Tracking
New forecast layout! Learn more

10-Day Weather Forecast

Advertisements
Track Severe Weather on mobile